Time;durP1;ratioP1;P1;durP2;ratioP2;P2;SDS_P1;SDS_P2;PMS_P1;PMS_P2;Temp;Humidity;BMP_temperature;BMP_pressure;BME280_temperature;BME280_humidity;BME280_pressure;Samples;Min_cycle;Max_cycle;Signal;HPM_P1;HPM_P2
2021/08/13 00:02:04;;;;;;;32.40;4.20;;;;;;;;;;4983249;28;20026;-61
2021/08/13 00:04:29;;;;;;;32.60;3.38;;;;;;;;;;4980496;28;20253;-61
2021/08/13 00:06:55;;;;;;;35.70;3.17;;;;;;;;;;4981288;28;20038;-61
2021/08/13 00:09:22;;;;;;;43.67;5.15;;;;;;;;;;4979752;28;20039;-61
2021/08/13 00:11:48;;;;;;;29.33;3.80;;;;;;;;;;4979347;28;20564;-61
2021/08/13 00:14:14;;;;;;;22.27;2.63;;;;;;;;;;4982465;28;20038;-62
2021/08/13 00:16:39;;;;;;;44.78;3.50;;;;;;;;;;4972970;28;20396;-61
2021/08/13 00:19:05;;;;;;;30.15;3.58;;;;;;;;;;4972413;28;20114;-61
2021/08/13 00:21:31;;;;;;;41.65;3.83;;;;;;;;;;4976858;28;20050;-61
2021/08/13 00:23:57;;;;;;;46.85;4.30;;;;;;;;;;4976891;28;20034;-61
2021/08/13 00:26:23;;;;;;;35.42;3.28;;;;;;;;;;4980397;28;20034;-62
2021/08/13 00:28:49;;;;;;;25.58;3.58;;;;;;;;;;4979380;28;20041;-61
2021/08/13 00:31:14;;;;;;;28.02;3.20;;;;;;;;;;4978649;28;20039;-61
2021/08/13 00:33:40;;;;;;;33.55;3.90;;;;;;;;;;4981877;28;20038;-61
2021/08/13 00:36:05;;;;;;;33.15;3.13;;;;;;;;;;4974693;28;20034;-62
2021/08/13 00:38:31;;;;;;;41.08;3.63;;;;;;;;;;4976152;28;20126;-62
2021/08/13 00:40:56;;;;;;;33.38;2.63;;;;;;;;;;4980003;28;20628;-62
2021/08/13 00:43:22;;;;;;;44.95;3.47;;;;;;;;;;4974813;28;20161;-61
2021/08/13 00:45:47;;;;;;;32.45;3.88;;;;;;;;;;4978146;28;20031;-61
2021/08/13 00:48:13;;;;;;;38.28;3.08;;;;;;;;;;4973625;28;20027;-61
2021/08/13 00:50:39;;;;;;;31.80;2.83;;;;;;;;;;4978713;28;20034;-61
2021/08/13 00:53:07;;;;;;;27.20;3.05;;;;;;;;;;4975422;28;20056;-60
2021/08/13 00:55:33;;;;;;;39.05;4.00;;;;;;;;;;4976719;28;20413;-61
2021/08/13 00:57:58;;;;;;;30.10;3.15;;;;;;;;;;4981219;28;20238;-61
2021/08/13 01:00:24;;;;;;;49.92;5.35;;;;;;;;;;4989668;28;20046;-61
2021/08/13 01:02:50;;;;;;;38.25;3.33;;;;;;;;;;5001545;28;20033;-61
2021/08/13 01:05:17;;;;;;;24.98;2.70;;;;;;;;;;5003449;28;20060;-61
2021/08/13 01:07:42;;;;;;;47.90;4.97;;;;;;;;;;5004360;28;20022;-61
2021/08/13 01:10:09;;;;;;;39.58;3.63;;;;;;;;;;4997044;28;20042;-61
2021/08/13 01:13:07;;;;;;;35.65;2.75;;;;;;;;;;4993588;28;20089;-61
2021/08/13 01:15:39;;;;;;;42.13;3.67;;;;;;;;;;5001883;28;20036;-61
2021/08/13 01:18:21;;;;;;;47.85;3.35;;;;;;;;;;4995791;28;20069;-61
2021/08/13 01:21:16;;;;;;;33.15;3.17;;;;;;;;;;5000656;28;20054;-61
2021/08/13 01:23:49;;;;;;;38.78;4.60;;;;;;;;;;4992987;28;20026;-61
2021/08/13 01:26:16;;;;;;;34.08;3.25;;;;;;;;;;4999750;28;20136;-61
2021/08/13 01:28:57;;;;;;;32.60;4.35;;;;;;;;;;4999070;28;20033;-61
2021/08/13 01:31:25;;;;;;;32.63;2.50;;;;;;;;;;5000039;28;20084;-61
2021/08/13 01:34:00;;;;;;;27.67;3.53;;;;;;;;;;4990912;28;20121;-61
2021/08/13 01:36:28;;;;;;;35.95;2.60;;;;;;;;;;4995350;28;20533;-61
2021/08/13 01:38:56;;;;;;;24.20;3.60;;;;;;;;;;4994469;28;20022;-61
2021/08/13 01:41:23;;;;;;;37.17;3.38;;;;;;;;;;4993430;28;20045;-61
2021/08/13 01:43:49;;;;;;;37.97;3.33;;;;;;;;;;4998829;28;20085;-62
2021/08/13 01:46:15;;;;;;;19.92;2.30;;;;;;;;;;4992959;28;20089;-61
2021/08/13 01:48:41;;;;;;;41.00;4.70;;;;;;;;;;4998369;28;20136;-61
2021/08/13 01:51:08;;;;;;;46.42;4.20;;;;;;;;;;4994146;28;20100;-61
2021/08/13 01:53:34;;;;;;;37.38;4.10;;;;;;;;;;4994633;28;20056;-61
2021/08/13 01:56:01;;;;;;;39.60;2.95;;;;;;;;;;5004329;28;20484;-61
2021/08/13 01:58:27;;;;;;;44.92;3.92;;;;;;;;;;4994469;28;20600;-61
2021/08/13 02:00:54;;;;;;;25.60;3.40;;;;;;;;;;4996805;28;20046;-61
2021/08/13 02:03:19;;;;;;;25.45;4.18;;;;;;;;;;4995602;28;20635;-61
2021/08/13 02:05:47;;;;;;;30.92;4.50;;;;;;;;;;5001327;28;20124;-61
2021/08/13 02:08:13;;;;;;;46.50;3.97;;;;;;;;;;4999631;28;20172;-61
2021/08/13 02:10:41;;;;;;;34.97;3.85;;;;;;;;;;4997645;28;20033;-61
2021/08/13 02:13:08;;;;;;;31.98;3.90;;;;;;;;;;4993194;28;20030;-61
2021/08/13 02:15:37;;;;;;;38.38;3.95;;;;;;;;;;4995198;28;20078;-61
2021/08/13 02:18:07;;;;;;;43.85;2.95;;;;;;;;;;4997244;28;20573;-61
2021/08/13 02:20:35;;;;;;;32.47;3.10;;;;;;;;;;4990787;28;20077;-61
2021/08/13 02:23:01;;;;;;;33.95;2.97;;;;;;;;;;5001434;28;20038;-61
2021/08/13 02:25:26;;;;;;;36.17;3.38;;;;;;;;;;5000599;28;20036;-61
2021/08/13 02:27:52;;;;;;;28.95;2.53;;;;;;;;;;5005222;28;20126;-61
2021/08/13 02:30:17;;;;;;;33.38;5.07;;;;;;;;;;5000478;28;20034;-61
2021/08/13 02:32:45;;;;;;;31.80;2.90;;;;;;;;;;5001949;28;20533;-61
2021/08/13 02:35:11;;;;;;;34.33;3.47;;;;;;;;;;4997195;28;20113;-61
2021/08/13 02:37:44;;;;;;;30.55;4.53;;;;;;;;;;4992063;28;20037;-60
2021/08/13 02:40:12;;;;;;;38.67;3.72;;;;;;;;;;4998575;28;20030;-61
2021/08/13 02:42:43;;;;;;;31.25;3.72;;;;;;;;;;4999157;28;20129;-61
2021/08/13 02:45:13;;;;;;;27.85;2.65;;;;;;;;;;4998151;28;20026;-61
2021/08/13 02:47:40;;;;;;;27.98;3.15;;;;;;;;;;4999962;28;20026;-61
2021/08/13 02:50:08;;;;;;;34.92;2.35;;;;;;;;;;4997232;28;20396;-61
2021/08/13 02:52:44;;;;;;;27.25;3.58;;;;;;;;;;4996906;28;20026;-61
2021/08/13 02:55:13;;;;;;;40.78;4.10;;;;;;;;;;4997828;28;20030;-61
2021/08/13 02:57:40;;;;;;;36.63;3.38;;;;;;;;;;4992821;28;20026;-62
2021/08/13 03:00:07;;;;;;;36.72;3.30;;;;;;;;;;4995041;28;20032;-61
2021/08/13 03:02:34;;;;;;;31.98;3.63;;;;;;;;;;5002482;28;20049;-60
2021/08/13 03:05:01;;;;;;;28.85;3.78;;;;;;;;;;4998135;28;20026;-61
2021/08/13 03:07:27;;;;;;;30.67;3.58;;;;;;;;;;4996881;28;20089;-61
2021/08/13 03:09:54;;;;;;;34.53;3.78;;;;;;;;;;5001355;28;20460;-61
2021/08/13 03:12:20;;;;;;;36.03;3.03;;;;;;;;;;5004361;28;20065;-61
2021/08/13 03:14:48;;;;;;;26.92;2.65;;;;;;;;;;4998084;28;20061;-61
2021/08/13 03:17:15;;;;;;;35.40;3.13;;;;;;;;;;5006646;28;20503;-61
2021/08/13 03:19:41;;;;;;;42.88;4.25;;;;;;;;;;4999398;28;20053;-61
2021/08/13 03:22:07;;;;;;;36.38;2.78;;;;;;;;;;4999114;28;20025;-62
2021/08/13 03:24:34;;;;;;;30.27;3.47;;;;;;;;;;4995656;28;20525;-61
2021/08/13 03:27:01;;;;;;;22.38;2.22;;;;;;;;;;5000516;28;20121;-61
2021/08/13 03:29:27;;;;;;;30.90;3.00;;;;;;;;;;5001004;28;20042;-61
2021/08/13 03:31:58;;;;;;;44.15;4.13;;;;;;;;;;5003548;28;20436;-61
2021/08/13 03:34:24;;;;;;;33.20;2.97;;;;;;;;;;5000583;28;20034;-61
2021/08/13 03:36:49;;;;;;;23.52;2.38;;;;;;;;;;4997386;28;20049;-61
2021/08/13 03:39:15;;;;;;;29.00;3.05;;;;;;;;;;4997954;28;20120;-61
2021/08/13 03:41:40;;;;;;;30.10;3.60;;;;;;;;;;4997807;28;20449;-61
2021/08/13 03:44:06;;;;;;;35.80;3.17;;;;;;;;;;4996101;28;20480;-60
2021/08/13 03:46:31;;;;;;;30.80;2.97;;;;;;;;;;4998928;28;20029;-61
2021/08/13 03:48:57;;;;;;;32.00;3.33;;;;;;;;;;5000395;28;20081;-62
2021/08/13 03:51:22;;;;;;;50.05;4.65;;;;;;;;;;4997581;28;20512;-61
2021/08/13 03:53:49;;;;;;;32.22;2.92;;;;;;;;;;4984849;28;20034;-61
2021/08/13 03:56:14;;;;;;;25.75;2.13;;;;;;;;;;4998473;28;20493;-61
2021/08/13 03:58:41;;;;;;;32.88;3.30;;;;;;;;;;5002918;28;20030;-61
2021/08/13 04:01:07;;;;;;;46.47;3.60;;;;;;;;;;4997804;28;20034;-62
2021/08/13 04:03:33;;;;;;;48.78;3.03;;;;;;;;;;4997021;28;20030;-61
2021/08/13 04:05:59;;;;;;;41.95;3.28;;;;;;;;;;4997123;28;20547;-61
2021/08/13 04:08:25;;;;;;;29.92;3.67;;;;;;;;;;4998911;28;20033;-62
2021/08/13 04:10:50;;;;;;;21.95;2.28;;;;;;;;;;4997805;28;20085;-62
2021/08/13 04:13:16;;;;;;;37.22;3.72;;;;;;;;;;4994789;28;20034;-61
2021/08/13 04:15:41;;;;;;;31.30;3.00;;;;;;;;;;5001357;28;20031;-61
2021/08/13 04:18:07;;;;;;;43.00;3.00;;;;;;;;;;4997864;28;20404;-62
2021/08/13 04:20:33;;;;;;;30.33;2.85;;;;;;;;;;5000134;28;20049;-61
2021/08/13 04:22:58;;;;;;;30.65;2.40;;;;;;;;;;4995382;28;20037;-61
2021/08/13 04:25:24;;;;;;;30.08;3.08;;;;;;;;;;4996696;28;20116;-61
2021/08/13 04:27:49;;;;;;;19.55;2.97;;;;;;;;;;4997143;28;20042;-61
2021/08/13 04:30:15;;;;;;;23.38;4.85;;;;;;;;;;5001463;28;20029;-61
2021/08/13 04:32:41;;;;;;;29.98;3.03;;;;;;;;;;4998573;28;20488;-62
2021/08/13 04:35:07;;;;;;;26.10;2.63;;;;;;;;;;5001726;28;20464;-61
2021/08/13 04:37:33;;;;;;;34.28;4.05;;;;;;;;;;5000757;28;20457;-61
2021/08/13 04:39:59;;;;;;;30.35;2.90;;;;;;;;;;5002593;28;20042;-61
2021/08/13 04:42:24;;;;;;;39.92;3.80;;;;;;;;;;5000012;28;20025;-62
2021/08/13 04:44:50;;;;;;;29.33;2.40;;;;;;;;;;5003778;28;20420;-61
2021/08/13 04:47:15;;;;;;;31.92;2.47;;;;;;;;;;5006008;28;20290;-61
2021/08/13 04:49:41;;;;;;;24.48;2.97;;;;;;;;;;4998437;28;20080;-61
2021/08/13 04:52:06;;;;;;;26.50;3.00;;;;;;;;;;5002052;28;20295;-61
2021/08/13 04:54:32;;;;;;;30.30;3.28;;;;;;;;;;4995589;28;20042;-62
2021/08/13 04:56:59;;;;;;;23.35;2.50;;;;;;;;;;4999591;28;20038;-61
2021/08/13 04:59:25;;;;;;;25.17;2.75;;;;;;;;;;5003287;28;20169;-61
2021/08/13 05:01:51;;;;;;;17.63;2.83;;;;;;;;;;5004534;28;20192;-60
2021/08/13 05:04:17;;;;;;;30.63;3.58;;;;;;;;;;4998499;28;20125;-61
2021/08/13 05:06:43;;;;;;;23.50;3.13;;;;;;;;;;4996813;28;20045;-61
2021/08/13 05:09:09;;;;;;;28.65;3.58;;;;;;;;;;4996333;28;20387;-61
2021/08/13 05:11:34;;;;;;;33.67;2.78;;;;;;;;;;4999299;28;20098;-61
2021/08/13 05:14:00;;;;;;;29.00;3.47;;;;;;;;;;4996210;28;20366;-61
2021/08/13 05:16:25;;;;;;;34.05;3.67;;;;;;;;;;5003497;28;20108;-61
2021/08/13 05:18:51;;;;;;;29.70;4.38;;;;;;;;;;5000185;28;20072;-62
2021/08/13 05:21:16;;;;;;;31.77;2.58;;;;;;;;;;4992480;28;20321;-61
2021/08/13 05:23:42;;;;;;;27.30;2.50;;;;;;;;;;5002672;28;20498;-61
2021/08/13 05:26:07;;;;;;;36.55;4.35;;;;;;;;;;4997232;28;20126;-61
2021/08/13 05:28:33;;;;;;;40.55;2.90;;;;;;;;;;4999009;28;20045;-61
2021/08/13 05:30:58;;;;;;;43.88;2.83;;;;;;;;;;5000046;28;20030;-61
2021/08/13 05:33:24;;;;;;;28.52;2.20;;;;;;;;;;4998518;28;20068;-61
2021/08/13 05:35:49;;;;;;;33.15;2.58;;;;;;;;;;4993556;28;20057;-61
2021/08/13 05:38:15;;;;;;;26.88;3.40;;;;;;;;;;4998358;28;20412;-61
2021/08/13 05:40:40;;;;;;;26.27;2.67;;;;;;;;;;4995250;28;20026;-61
2021/08/13 05:43:06;;;;;;;23.52;3.40;;;;;;;;;;4998967;28;20038;-61
2021/08/13 05:45:31;;;;;;;21.35;2.47;;;;;;;;;;4999428;28;20113;-61
2021/08/13 05:47:57;;;;;;;32.63;3.60;;;;;;;;;;4998065;28;20507;-61
2021/08/13 05:50:22;;;;;;;32.08;2.92;;;;;;;;;;4998273;28;20022;-60
2021/08/13 05:52:48;;;;;;;38.92;3.17;;;;;;;;;;4993895;28;20285;-61
2021/08/13 05:55:13;;;;;;;42.55;4.65;;;;;;;;;;4997018;28;20092;-60
2021/08/13 05:57:40;;;;;;;43.45;3.75;;;;;;;;;;5004416;28;20065;-61
2021/08/13 06:00:07;;;;;;;27.60;2.45;;;;;;;;;;4996253;28;20026;-61
2021/08/13 06:02:34;;;;;;;44.03;4.30;;;;;;;;;;5000045;28;20061;-62
2021/08/13 06:04:59;;;;;;;47.72;4.75;;;;;;;;;;4999984;28;20500;-61
2021/08/13 06:07:25;;;;;;;39.67;2.80;;;;;;;;;;5003002;28;20338;-61
2021/08/13 06:09:50;;;;;;;34.65;3.40;;;;;;;;;;5001746;28;20547;-61
2021/08/13 06:12:16;;;;;;;29.60;2.95;;;;;;;;;;5002872;28;20108;-61
2021/08/13 06:14:42;;;;;;;39.05;3.15;;;;;;;;;;5005836;28;20022;-61
2021/08/13 06:17:07;;;;;;;27.25;3.70;;;;;;;;;;4998344;28;20117;-61
2021/08/13 06:19:33;;;;;;;31.60;2.95;;;;;;;;;;5003421;28;20050;-61
2021/08/13 06:21:59;;;;;;;47.70;3.47;;;;;;;;;;4997747;28;20121;-61
2021/08/13 06:24:26;;;;;;;33.67;2.83;;;;;;;;;;5002147;28;20061;-61
2021/08/13 06:26:52;;;;;;;30.60;3.22;;;;;;;;;;4997429;28;20088;-61
2021/08/13 06:29:20;;;;;;;30.35;2.85;;;;;;;;;;4997644;28;20510;-61
2021/08/13 06:31:46;;;;;;;28.35;3.42;;;;;;;;;;4994947;28;20058;-61
2021/08/13 06:34:11;;;;;;;41.30;3.28;;;;;;;;;;4993308;28;20492;-61
2021/08/13 06:36:37;;;;;;;43.13;3.40;;;;;;;;;;5003551;28;20512;-61
2021/08/13 06:39:03;;;;;;;40.65;3.15;;;;;;;;;;5007660;28;20034;-61
2021/08/13 06:41:28;;;;;;;28.75;2.65;;;;;;;;;;5003867;28;20327;-61
2021/08/13 06:43:53;;;;;;;41.97;2.97;;;;;;;;;;4997197;28;20455;-61
2021/08/13 06:46:19;;;;;;;50.97;3.75;;;;;;;;;;4994563;28;20132;-61
2021/08/13 06:48:44;;;;;;;30.92;3.70;;;;;;;;;;5006208;28;20042;-61
2021/08/13 06:51:10;;;;;;;29.05;2.28;;;;;;;;;;4998434;28;20022;-61
2021/08/13 06:53:35;;;;;;;33.47;2.70;;;;;;;;;;4998112;28;20025;-61
2021/08/13 06:56:01;;;;;;;34.25;3.08;;;;;;;;;;5000004;28;20077;-61
2021/08/13 06:58:26;;;;;;;40.88;3.25;;;;;;;;;;5000874;28;20536;-61
2021/08/13 07:00:52;;;;;;;33.10;2.75;;;;;;;;;;5005636;28;20125;-61
2021/08/13 07:03:17;;;;;;;28.13;2.30;;;;;;;;;;5002043;28;20044;-62
2021/08/13 07:05:43;;;;;;;32.63;2.65;;;;;;;;;;5004224;28;20428;-61
2021/08/13 07:08:10;;;;;;;31.55;2.40;;;;;;;;;;4995599;28;20117;-61
2021/08/13 07:10:36;;;;;;;30.80;5.75;;;;;;;;;;5003716;28;20586;-61
2021/08/13 07:13:02;;;;;;;34.78;3.80;;;;;;;;;;5003991;28;20033;-61
2021/08/13 07:15:27;;;;;;;30.00;2.78;;;;;;;;;;5001503;28;20034;-61
2021/08/13 07:17:53;;;;;;;26.27;3.05;;;;;;;;;;4994948;28;20034;-61
2021/08/13 07:20:18;;;;;;;33.38;2.60;;;;;;;;;;4999800;28;20100;-62
2021/08/13 07:22:44;;;;;;;27.80;2.95;;;;;;;;;;5000226;28;20056;-61
2021/08/13 07:25:10;;;;;;;36.13;2.90;;;;;;;;;;4991009;28;20519;-61
2021/08/13 07:27:36;;;;;;;40.10;2.75;;;;;;;;;;4998491;28;20042;-61
2021/08/13 07:30:04;;;;;;;37.35;2.45;;;;;;;;;;5001075;28;20052;-61
2021/08/13 07:32:29;;;;;;;23.27;2.15;;;;;;;;;;5001438;28;20076;-61
2021/08/13 07:34:55;;;;;;;36.67;3.35;;;;;;;;;;4997725;28;20535;-62
2021/08/13 07:37:20;;;;;;;35.97;4.53;;;;;;;;;;5000175;28;20038;-63
2021/08/13 07:39:47;;;;;;;33.50;4.38;;;;;;;;;;5001974;28;20030;-62
2021/08/13 07:42:12;;;;;;;35.42;3.70;;;;;;;;;;4993275;28;20443;-62
2021/08/13 07:44:38;;;;;;;32.55;3.78;;;;;;;;;;5002075;28;20379;-62
2021/08/13 07:47:03;;;;;;;30.52;2.28;;;;;;;;;;4999464;28;20038;-62
2021/08/13 07:49:29;;;;;;;25.67;2.50;;;;;;;;;;4996907;28;20503;-62
2021/08/13 07:51:54;;;;;;;26.55;2.35;;;;;;;;;;4999750;28;20113;-62
2021/08/13 07:54:20;;;;;;;34.15;2.53;;;;;;;;;;4998228;28;20095;-62
2021/08/13 07:56:45;;;;;;;22.83;2.40;;;;;;;;;;5004071;28;20042;-62
2021/08/13 07:59:11;;;;;;;30.50;2.92;;;;;;;;;;4999786;28;20076;-62
2021/08/13 08:01:36;;;;;;;28.38;2.35;;;;;;;;;;5002422;28;20026;-62
2021/08/13 08:04:02;;;;;;;31.63;2.70;;;;;;;;;;5003751;28;20128;-62
2021/08/13 08:06:29;;;;;;;28.85;4.40;;;;;;;;;;5000664;28;20033;-62
2021/08/13 08:08:56;;;;;;;23.02;2.78;;;;;;;;;;5001806;28;20076;-61
2021/08/13 08:11:21;;;;;;;32.45;2.83;;;;;;;;;;5004271;28;20025;-62
2021/08/13 08:13:47;;;;;;;27.08;2.67;;;;;;;;;;4999514;28;20472;-62
2021/08/13 08:16:12;;;;;;;34.20;2.17;;;;;;;;;;4998146;28;20041;-62
2021/08/13 08:18:38;;;;;;;36.15;2.53;;;;;;;;;;5003345;28;20498;-62
2021/08/13 08:21:03;;;;;;;26.67;2.90;;;;;;;;;;4999223;28;20080;-62
2021/08/13 08:23:29;;;;;;;30.67;2.75;;;;;;;;;;4998769;28;20044;-62
2021/08/13 08:25:54;;;;;;;32.25;2.88;;;;;;;;;;4998520;28;20412;-62
2021/08/13 08:28:20;;;;;;;29.10;2.70;;;;;;;;;;5006248;28;20041;-62
2021/08/13 08:30:45;;;;;;;26.95;3.03;;;;;;;;;;4997015;28;20104;-62
2021/08/13 08:33:11;;;;;;;29.85;3.45;;;;;;;;;;5001537;28;20033;-62
2021/08/13 08:35:36;;;;;;;35.33;4.18;;;;;;;;;;5001694;28;20030;-62
2021/08/13 08:38:02;;;;;;;19.45;1.75;;;;;;;;;;5000040;28;20057;-62
2021/08/13 08:40:30;;;;;;;20.45;2.28;;;;;;;;;;5007478;28;20404;-62
2021/08/13 08:42:57;;;;;;;30.58;3.20;;;;;;;;;;4995982;28;20492;-62
2021/08/13 08:45:25;;;;;;;30.35;3.28;;;;;;;;;;4996728;28;20120;-62
2021/08/13 08:47:53;;;;;;;33.17;4.22;;;;;;;;;;5004096;28;20050;-62
2021/08/13 08:50:21;;;;;;;36.22;3.00;;;;;;;;;;4999198;28;20396;-62
2021/08/13 08:52:48;;;;;;;33.30;3.45;;;;;;;;;;5002478;28;20037;-62
2021/08/13 08:55:14;;;;;;;20.08;2.17;;;;;;;;;;4998166;28;20049;-62
2021/08/13 08:57:40;;;;;;;34.42;3.88;;;;;;;;;;4997113;28;20038;-63
2021/08/13 09:00:08;;;;;;;26.95;2.30;;;;;;;;;;4998693;28;20203;-62
2021/08/13 09:02:33;;;;;;;33.13;3.10;;;;;;;;;;4995334;28;20038;-63
2021/08/13 09:05:00;;;;;;;32.22;2.97;;;;;;;;;;4996733;28;20481;-62
2021/08/13 09:07:26;;;;;;;25.77;3.40;;;;;;;;;;4995349;28;20030;-63
2021/08/13 09:09:52;;;;;;;44.97;4.03;;;;;;;;;;5003537;28;20416;-63
2021/08/13 09:12:18;;;;;;;32.35;3.30;;;;;;;;;;4999234;28;20030;-63
2021/08/13 09:14:44;;;;;;;25.58;3.10;;;;;;;;;;5002707;28;20520;-63
2021/08/13 09:17:10;;;;;;;24.48;3.20;;;;;;;;;;4996283;28;20041;-63
2021/08/13 09:19:41;;;;;;;21.27;2.08;;;;;;;;;;4998128;28;20046;-62
2021/08/13 09:22:12;;;;;;;23.70;3.27;;;;;;;;;;5000161;28;20061;-62
2021/08/13 09:24:40;;;;;;;31.13;2.30;;;;;;;;;;4999433;28;20026;-62
2021/08/13 09:27:22;;;;;;;29.23;2.40;;;;;;;;;;5003238;28;20583;-62
2021/08/13 09:30:13;;;;;;;25.98;3.28;;;;;;;;;;4999337;28;20053;-62
2021/08/13 09:32:41;;;;;;;28.67;2.53;;;;;;;;;;4998273;28;20057;-62
2021/08/13 09:35:07;;;;;;;26.27;2.72;;;;;;;;;;4998855;28;20397;-61
2021/08/13 09:37:35;;;;;;;38.72;5.03;;;;;;;;;;5000039;28;20038;-61
2021/08/13 09:40:01;;;;;;;27.90;3.00;;;;;;;;;;5001416;28;20497;-60
2021/08/13 09:42:39;;;;;;;24.38;2.83;;;;;;;;;;5000546;28;20044;-61
2021/08/13 09:45:09;;;;;;;32.33;3.15;;;;;;;;;;4994566;28;20076;-61
2021/08/13 09:47:46;;;;;;;32.50;3.15;;;;;;;;;;4995451;28;20566;-61
2021/08/13 09:50:15;;;;;;;30.50;4.40;;;;;;;;;;4999691;28;20029;-62
2021/08/13 09:52:41;;;;;;;24.83;2.70;;;;;;;;;;4996805;28;20068;-62
2021/08/13 09:55:15;;;;;;;22.60;2.35;;;;;;;;;;4997588;28;20041;-62
2021/08/13 09:57:44;;;;;;;24.30;2.40;;;;;;;;;;4994302;28;20053;-62
2021/08/13 10:00:10;;;;;;;29.08;3.60;;;;;;;;;;5000534;28;20037;-62
2021/08/13 10:02:38;;;;;;;29.75;2.63;;;;;;;;;;5003246;28;20061;-61
2021/08/13 10:05:24;;;;;;;32.35;4.35;;;;;;;;;;4995309;28;20481;-62
2021/08/13 10:07:55;;;;;;;20.90;3.38;;;;;;;;;;4999515;28;20049;-61
2021/08/13 10:10:28;;;;;;;25.80;2.55;;;;;;;;;;4995376;28;20385;-62
2021/08/13 10:12:54;;;;;;;32.50;2.88;;;;;;;;;;5004783;28;20381;-62
2021/08/13 10:15:36;;;;;;;17.88;2.47;;;;;;;;;;4999110;28;20038;-62
2021/08/13 10:18:07;;;;;;;27.42;2.65;;;;;;;;;;5000363;28;20054;-61
2021/08/13 10:20:35;;;;;;;24.50;2.80;;;;;;;;;;5000605;28;20038;-62
2021/08/13 10:23:01;;;;;;;16.75;2.55;;;;;;;;;;4997121;28;20100;-62
2021/08/13 10:25:27;;;;;;;19.83;2.30;;;;;;;;;;5001881;28;20026;-62
2021/08/13 10:27:55;;;;;;;32.03;2.72;;;;;;;;;;4998576;28;20026;-61
2021/08/13 10:30:22;;;;;;;25.70;2.63;;;;;;;;;;4996069;28;20041;-61
2021/08/13 10:32:51;;;;;;;22.30;2.33;;;;;;;;;;5001708;28;20883;-61
2021/08/13 10:35:17;;;;;;;25.27;2.35;;;;;;;;;;5000560;28;20480;-61
2021/08/13 10:37:43;;;;;;;21.27;2.47;;;;;;;;;;5006270;28;20096;-61
2021/08/13 10:40:10;;;;;;;38.67;3.88;;;;;;;;;;5000812;28;20539;-61
2021/08/13 10:42:41;;;;;;;15.48;2.28;;;;;;;;;;4999912;28;20034;-61
2021/08/13 10:45:14;;;;;;;28.45;2.30;;;;;;;;;;5004229;28;20484;-61
2021/08/13 10:47:56;;;;;;;17.55;2.53;;;;;;;;;;5004059;28;20070;-61
2021/08/13 10:50:21;;;;;;;16.50;2.50;;;;;;;;;;5000106;28;20088;-61
2021/08/13 10:52:47;;;;;;;15.52;1.80;;;;;;;;;;4994903;28;20306;-61
2021/08/13 10:55:53;;;;;;;28.45;2.60;;;;;;;;;;5002933;28;20185;-61
2021/08/13 10:58:42;;;;;;;22.30;2.30;;;;;;;;;;4997203;28;20370;-61
2021/08/13 11:01:12;;;;;;;17.27;2.53;;;;;;;;;;5002177;28;20087;-61
2021/08/13 11:03:54;;;;;;;21.00;2.63;;;;;;;;;;4999195;28;20116;-61
2021/08/13 11:06:38;;;;;;;24.92;2.88;;;;;;;;;;5000561;28;20390;-61
2021/08/13 11:09:04;;;;;;;23.65;2.63;;;;;;;;;;5002631;28;20120;-61
2021/08/13 11:11:49;;;;;;;26.73;3.15;;;;;;;;;;5002885;28;20066;-61
2021/08/13 11:14:28;;;;;;;24.63;3.40;;;;;;;;;;4997036;28;20026;-61
2021/08/13 11:16:55;;;;;;;24.35;3.25;;;;;;;;;;5000375;28;20517;-61
2021/08/13 11:19:21;;;;;;;24.63;2.45;;;;;;;;;;5000819;28;20536;-61
2021/08/13 11:21:49;;;;;;;17.30;2.33;;;;;;;;;;4999958;28;20038;-61
2021/08/13 11:24:16;;;;;;;27.65;3.35;;;;;;;;;;5003746;28;20030;-62
2021/08/13 11:26:51;;;;;;;20.73;2.28;;;;;;;;;;5000205;28;20022;-61
2021/08/13 11:29:34;;;;;;;25.15;2.70;;;;;;;;;;5001494;28;20026;-61
2021/08/13 11:32:20;;;;;;;23.42;3.35;;;;;;;;;;4999847;28;20556;-61
2021/08/13 11:34:47;;;;;;;19.38;2.70;;;;;;;;;;4994789;28;20073;-61
2021/08/13 11:37:31;;;;;;;21.63;2.53;;;;;;;;;;5003677;28;20022;-64
2021/08/13 11:39:56;;;;;;;21.25;2.95;;;;;;;;;;4999031;28;20076;-61
2021/08/13 11:42:23;;;;;;;31.85;2.15;;;;;;;;;;5002934;28;20042;-62
2021/08/13 11:44:50;;;;;;;16.30;3.10;;;;;;;;;;5002509;28;20109;-62
2021/08/13 11:47:19;;;;;;;15.85;2.55;;;;;;;;;;4998213;28;20031;-61
2021/08/13 11:49:48;;;;;;;18.48;2.15;;;;;;;;;;5000689;28;20030;-61
2021/08/13 11:52:33;;;;;;;13.05;2.22;;;;;;;;;;4999453;28;20026;-62
2021/08/13 11:55:22;;;;;;;18.92;2.50;;;;;;;;;;5000867;28;20041;-61
2021/08/13 11:57:53;;;;;;;20.77;2.13;;;;;;;;;;4992460;28;20072;-62
2021/08/13 12:00:20;;;;;;;26.08;2.72;;;;;;;;;;5003284;28;20077;-61
2021/08/13 12:02:47;;;;;;;22.17;2.50;;;;;;;;;;5007043;28;20270;-61
2021/08/13 12:05:13;;;;;;;23.88;2.75;;;;;;;;;;4998479;28;20081;-62
2021/08/13 12:07:40;;;;;;;25.90;2.80;;;;;;;;;;4995975;28;20547;-62
2021/08/13 12:10:09;;;;;;;22.85;2.60;;;;;;;;;;5002528;28;20034;-61
2021/08/13 12:12:35;;;;;;;27.45;2.78;;;;;;;;;;5005366;28;20580;-62
2021/08/13 12:15:00;;;;;;;14.50;2.63;;;;;;;;;;5001989;28;20080;-61
2021/08/13 12:17:26;;;;;;;23.13;2.40;;;;;;;;;;5005038;28;20033;-62
2021/08/13 12:19:59;;;;;;;21.65;2.78;;;;;;;;;;4999029;28;20084;-62
2021/08/13 12:22:36;;;;;;;12.77;2.08;;;;;;;;;;4996929;28;20045;-62
2021/08/13 12:25:04;;;;;;;22.73;3.15;;;;;;;;;;5003207;28;20088;-62
2021/08/13 12:27:33;;;;;;;24.27;2.95;;;;;;;;;;5006339;28;20097;-62
2021/08/13 12:29:59;;;;;;;26.85;4.15;;;;;;;;;;5003751;28;20044;-62
2021/08/13 12:32:39;;;;;;;18.30;2.70;;;;;;;;;;5006514;28;20029;-62
2021/08/13 12:35:07;;;;;;;24.90;2.38;;;;;;;;;;5003670;28;20522;-62
2021/08/13 12:37:32;;;;;;;30.77;2.60;;;;;;;;;;5005814;28;20103;-62
2021/08/13 12:40:00;;;;;;;34.25;3.17;;;;;;;;;;5001405;28;20030;-62
2021/08/13 12:42:26;;;;;;;26.52;2.53;;;;;;;;;;5005313;28;20030;-62
2021/08/13 12:44:52;;;;;;;20.52;2.40;;;;;;;;;;4998619;28;20496;-63
2021/08/13 12:47:18;;;;;;;27.23;3.92;;;;;;;;;;4999331;28;20039;-62
2021/08/13 12:49:44;;;;;;;23.92;2.53;;;;;;;;;;4997995;28;20504;-63
2021/08/13 12:52:21;;;;;;;17.17;2.05;;;;;;;;;;5004942;28;20061;-62
2021/08/13 12:54:49;;;;;;;22.73;3.00;;;;;;;;;;4997576;28;20044;-62
2021/08/13 12:57:16;;;;;;;17.95;2.50;;;;;;;;;;5002009;28;20101;-60
2021/08/13 12:59:49;;;;;;;37.22;3.60;;;;;;;;;;5004276;28;20456;-61
2021/08/13 13:02:26;;;;;;;23.23;2.50;;;;;;;;;;4999730;28;20036;-61
2021/08/13 13:05:03;;;;;;;24.25;2.25;;;;;;;;;;5003338;28;20038;-61
2021/08/13 13:07:37;;;;;;;28.13;3.08;;;;;;;;;;5003398;28;20088;-61
2021/08/13 13:10:24;;;;;;;17.00;3.40;;;;;;;;;;4992990;28;20030;-61
2021/08/13 13:12:50;;;;;;;16.90;2.70;;;;;;;;;;4998416;28;20390;-61
2021/08/13 13:15:27;;;;;;;19.13;2.72;;;;;;;;;;5001432;28;20029;-61
2021/08/13 13:17:55;;;;;;;42.85;5.22;;;;;;;;;;5000963;28;20031;-61
2021/08/13 13:20:21;;;;;;;30.25;3.33;;;;;;;;;;4997749;28;20064;-61
2021/08/13 13:23:20;;;;;;;23.33;3.40;;;;;;;;;;5001012;28;20489;-61
2021/08/13 13:25:50;;;;;;;9.13;2.05;;;;;;;;;;5010653;28;20535;-60
2021/08/13 13:28:29;;;;;;;27.55;2.80;;;;;;;;;;4998777;28;20116;-61
2021/08/13 13:31:07;;;;;;;21.60;2.47;;;;;;;;;;4999837;28;20274;-61
2021/08/13 13:33:33;;;;;;;24.15;2.63;;;;;;;;;;5000497;28;20099;-61
2021/08/13 13:36:03;;;;;;;30.85;3.53;;;;;;;;;;5003331;28;20675;-61
2021/08/13 13:38:31;;;;;;;19.20;2.65;;;;;;;;;;4998574;28;20504;-62
2021/08/13 13:40:57;;;;;;;32.75;3.50;;;;;;;;;;4999382;28;20037;-61
2021/08/13 13:43:22;;;;;;;24.45;3.15;;;;;;;;;;5000600;28;20038;-61
2021/08/13 13:45:52;;;;;;;29.73;3.35;;;;;;;;;;4997537;28;20034;-61
2021/08/13 13:48:18;;;;;;;18.02;3.30;;;;;;;;;;5005981;28;20318;-61
2021/08/13 13:50:43;;;;;;;29.10;3.28;;;;;;;;;;4995008;28;20176;-61
2021/08/13 13:53:09;;;;;;;15.70;2.13;;;;;;;;;;4999468;28;20133;-61
2021/08/13 13:55:34;;;;;;;19.65;3.33;;;;;;;;;;4994999;28;20208;-61
2021/08/13 13:58:00;;;;;;;24.88;2.50;;;;;;;;;;4994084;28;20030;-61
2021/08/13 14:00:26;;;;;;;28.02;3.30;;;;;;;;;;4995856;28;20031;-61
2021/08/13 14:02:52;;;;;;;20.73;2.50;;;;;;;;;;4995588;28;20484;-61
2021/08/13 14:05:18;;;;;;;34.95;2.97;;;;;;;;;;4997855;28;20030;-62
2021/08/13 14:07:46;;;;;;;19.30;2.30;;;;;;;;;;4994039;28;20030;-61
2021/08/13 14:10:17;;;;;;;20.63;3.00;;;;;;;;;;5000916;28;20223;-62
2021/08/13 14:12:45;;;;;;;23.27;3.20;;;;;;;;;;4998828;28;20042;-62
2021/08/13 14:15:15;;;;;;;23.92;3.05;;;;;;;;;;4998241;28;20033;-61
2021/08/13 14:17:41;;;;;;;16.30;3.10;;;;;;;;;;5002772;28;20121;-61
2021/08/13 14:20:10;;;;;;;19.48;3.50;;;;;;;;;;4998649;28;20327;-61
2021/08/13 14:22:35;;;;;;;22.75;3.15;;;;;;;;;;4998457;28;20038;-61
2021/08/13 14:25:03;;;;;;;20.92;2.75;;;;;;;;;;4998694;28;20056;-61
2021/08/13 14:27:29;;;;;;;16.73;2.38;;;;;;;;;;4997560;28;20161;-61
2021/08/13 14:29:54;;;;;;;19.42;2.65;;;;;;;;;;4996318;28;20109;-61
2021/08/13 14:32:20;;;;;;;26.35;2.75;;;;;;;;;;4992731;28;20050;-62
2021/08/13 14:34:45;;;;;;;12.00;2.80;;;;;;;;;;4999430;28;20041;-62
2021/08/13 14:37:11;;;;;;;16.30;2.50;;;;;;;;;;4998137;28;20492;-62